地図

経路データ

SID SEASON NUMBER BASIN SUBBASIN NAME ISO_TIME NATURE LAT LON WMO_WIND WMO_PRES WMO_AGENCY TRACK_TYPE DIST2LAND LANDFALL IFLAG USA_AGENCY USA_ATCF_ID USA_LAT USA_LON USA_RECORD USA_STATUS USA_WIND USA_PRES USA_SSHS USA_R34_NE USA_R34_SE USA_R34_SW USA_R34_NW USA_R50_NE USA_R50_SE USA_R50_SW USA_R50_NW USA_R64_NE USA_R64_SE USA_R64_SW USA_R64_NW USA_POCI USA_ROCI USA_RMW USA_EYE TOKYO_LAT TOKYO_LON TOKYO_GRADE TOKYO_WIND TOKYO_PRES TOKYO_R50_DIR TOKYO_R50_LONG TOKYO_R50_SHORT TOKYO_R30_DIR TOKYO_R30_LONG TOKYO_R30_SHORT TOKYO_LAND CMA_LAT CMA_LON CMA_CAT CMA_WIND CMA_PRES HKO_LAT HKO_LON HKO_CAT HKO_WIND HKO_PRES NEWDELHI_LAT NEWDELHI_LON NEWDELHI_GRADE NEWDELHI_WIND NEWDELHI_PRES NEWDELHI_CI NEWDELHI_DP NEWDELHI_POCI REUNION_LAT REUNION_LON REUNION_TYPE REUNION_WIND REUNION_PRES REUNION_TNUM REUNION_CI REUNION_RMW REUNION_R34_NE REUNION_R34_SE REUNION_R34_SW REUNION_R34_NW REUNION_R50_NE REUNION_R50_SE REUNION_R50_SW REUNION_R50_NW REUNION_R64_NE REUNION_R64_SE REUNION_R64_SW REUNION_R64_NW BOM_LAT BOM_LON BOM_TYPE BOM_WIND BOM_PRES BOM_TNUM BOM_CI BOM_RMW BOM_R34_NE BOM_R34_SE BOM_R34_SW BOM_R34_NW BOM_R50_NE BOM_R50_SE BOM_R50_SW BOM_R50_NW BOM_R64_NE BOM_R64_SE BOM_R64_SW BOM_R64_NW BOM_ROCI BOM_POCI BOM_EYE BOM_POS_METHOD BOM_PRES_METHOD NADI_LAT NADI_LON NADI_CAT NADI_WIND NADI_PRES WELLINGTON_LAT WELLINGTON_LON WELLINGTON_WIND WELLINGTON_PRES DS824_LAT DS824_LON DS824_STAGE DS824_WIND DS824_PRES TD9636_LAT TD9636_LON TD9636_STAGE TD9636_WIND TD9636_PRES TD9635_LAT TD9635_LON TD9635_WIND TD9635_PRES TD9635_ROCI NEUMANN_LAT NEUMANN_LON NEUMANN_CLASS NEUMANN_WIND NEUMANN_PRES MLC_LAT MLC_LON MLC_CLASS MLC_WIND MLC_PRES USA_GUST BOM_GUST BOM_GUST_PER REUNION_GUST REUNION_GUST_PER USA_SEAHGT USA_SEARAD_NE USA_SEARAD_SE USA_SEARAD_SW USA_SEARAD_NW STORM_SPEED STORM_DIR
1861266N20269 1861 25 NA GM NOT_NAMED 1861-09-22 12:00:00 TS 20.0000 -91.5000 main 90 90 _____________O -1 20.0000 -91.5000 TD 30 2 0
1861266N20269 1861 25 NA GM NOT_NAMED 1861-09-22 15:00:00 TS 20.1000 -91.5125 main 94 94 _____________P -1 20.1000 -91.5125 TD 30 2 8
1861266N20269 1861 25 NA GM NOT_NAMED 1861-09-22 18:00:00 TS 20.2000 -91.5000 main 100 100 _____________O -1 20.2000 -91.5000 TD 30 2 17
1861266N20269 1861 25 NA GM NOT_NAMED 1861-09-22 21:00:00 TS 20.3000 -91.4500 main 104 93 _____________P -1 20.3000 -91.4500 TD 30 2 27
1861266N20269 1861 25 NA GM NOT_NAMED 1861-09-23 00:00:00 TS 20.4000 -91.4000 main 93 93 _____________O -1 20.4000 -91.4000 TD 30 2 13
1861266N20269 1861 25 NA GM NOT_NAMED 1861-09-23 03:00:00 TS 20.5000 -91.4000 main 93 93 _____________P -1 20.5000 -91.4000 TD 30 2 8
1861266N20269 1861 25 NA GM NOT_NAMED 1861-09-23 06:00:00 TS 20.6000 -91.4000 main 94 94 _____________O -1 20.6000 -91.4000 TD 30 2 13
1861266N20269 1861 25 NA GM NOT_NAMED 1861-09-23 09:00:00 TS 20.6850 -91.3500 main 96 86 _____________P -1 20.6850 -91.3500 TD 32 2 27
1861266N20269 1861 25 NA GM NOT_NAMED 1861-09-23 12:00:00 TS 20.8000 -91.3000 main 89 89 _____________O -1 20.8000 -91.3000 TS 35 3 5
1861266N20269 1861 25 NA GM NOT_NAMED 1861-09-23 15:00:00 TS 20.9850 -91.3000 main 96 96 _____________P -1 20.9850 -91.3000 TS 35 4 0
1861266N20269 1861 25 NA GM NOT_NAMED 1861-09-23 18:00:00 TS 21.2000 -91.3000 main 103 103 _____________O -1 21.2000 -91.3000 TS 35 4 5
1861266N20269 1861 25 NA GM NOT_NAMED 1861-09-23 21:00:00 TS 21.3925 -91.2501 main 108 99 _____________P -1 21.3925 -91.2501 TS 37 4 13
1861266N20269 1861 25 NA GM NOT_NAMED 1861-09-24 00:00:00 TS 21.6000 -91.2000 main 108 108 _____________O -1 21.6000 -91.2000 TS 40 5 7
1861266N20269 1861 25 NA GM NOT_NAMED 1861-09-24 03:00:00 TS 21.8500 -91.1925 main 129 121 _____________P -1 21.8500 -91.1925 TS 40 5 2
1861266N20269 1861 25 NA GM NOT_NAMED 1861-09-24 06:00:00 TS 22.1000 -91.2000 main 145 145 _____________O -1 22.1000 -91.2000 TS 40 5 0
1861266N20269 1861 25 NA GM NOT_NAMED 1861-09-24 09:00:00 TS 22.3000 -91.2149 main 163 163 _____________P -1 22.3000 -91.2149 TS 42 4 0
1861266N20269 1861 25 NA GM NOT_NAMED 1861-09-24 12:00:00 TS 22.5000 -91.2000 main 182 182 _____________O -1 22.5000 -91.2000 TS 45 5 11
1861266N20269 1861 25 NA GM NOT_NAMED 1861-09-24 15:00:00 TS 22.7425 -91.1225 main 197 197 _____________P -1 22.7425 -91.1225 TS 45 5 20
1861266N20269 1861 25 NA GM NOT_NAMED 1861-09-24 18:00:00 TS 23.0000 -91.0000 main 224 224 _____________O -1 23.0000 -91.0000 TS 45 6 26
1861266N20269 1861 25 NA GM NOT_NAMED 1861-09-24 21:00:00 TS 23.2500 -90.8500 main 253 251 _____________P -1 23.2500 -90.8500 TS 45 6 29
1861266N20269 1861 25 NA GM NOT_NAMED 1861-09-25 00:00:00 TS 23.5000 -90.7000 main 269 269 _____________O -1 23.5000 -90.7000 TS 45 6 25
1861266N20269 1861 25 NA GM NOT_NAMED 1861-09-25 03:00:00 TS 23.7500 -90.5924 main 288 288 _____________P -1 23.7500 -90.5924 TS 47 5 20
1861266N20269 1861 25 NA GM NOT_NAMED 1861-09-25 06:00:00 TS 24.0000 -90.5000 main 319 319 _____________O -1 24.0000 -90.5000 TS 50 5 18
1861266N20269 1861 25 NA GM NOT_NAMED 1861-09-25 09:00:00 TS 24.2350 -90.4148 main 339 339 _____________P -1 24.2350 -90.4148 TS 50 5 20
1861266N20269 1861 25 NA GM NOT_NAMED 1861-09-25 12:00:00 TS 24.5000 -90.3000 main 371 371 _____________O -1 24.5000 -90.3000 TS 50 7 24
1861266N20269 1861 25 NA GM NOT_NAMED 1861-09-25 15:00:00 TS 24.8425 -90.1151 main 399 399 _____________P -1 24.8425 -90.1151 TS 50 8 27
1861266N20269 1861 25 NA GM NOT_NAMED 1861-09-25 18:00:00 TS 25.2000 -89.9000 main 431 395 _____________O -1 25.2000 -89.9000 TS 50 8 29
1861266N20269 1861 25 NA GM NOT_NAMED 1861-09-25 21:00:00 TS 25.5075 -89.6999 main 395 359 _____________P -1 25.5075 -89.6999 TS 52 7 31
1861266N20269 1861 25 NA GM NOT_NAMED 1861-09-26 00:00:00 TS 25.8000 -89.5000 main 359 324 _____________O -1 25.8000 -89.5000 TS 55 7 31
1861266N20269 1861 25 NA GM NOT_NAMED 1861-09-26 03:00:00 TS 26.1000 -89.2999 main 324 290 _____________P -1 26.1000 -89.2999 TS 57 7 31
1861266N20269 1861 25 NA GM NOT_NAMED 1861-09-26 06:00:00 TS 26.4000 -89.1000 main 290 257 _____________O -1 26.4000 -89.1000 TS 60 7 29
1861266N20269 1861 25 NA GM NOT_NAMED 1861-09-26 09:00:00 TS 26.6922 -88.9370 main 257 226 _____________P -1 26.6922 -88.9370 TS 60 7 31
1861266N20269 1861 25 NA GM NOT_NAMED 1861-09-26 12:00:00 TS 27.0000 -88.7000 main 226 201 _____________O -1 27.0000 -88.7000 TS 60 9 42
1861266N20269 1861 25 NA GM NOT_NAMED 1861-09-26 15:00:00 TS 27.3426 -88.2876 main 205 186 _____________P -1 27.3426 -88.2876 TS 65 11 49
1861266N20269 1861 25 NA GM NOT_NAMED 1861-09-26 18:00:00 TS 27.7000 -87.8000 main 192 191 _____________O -1 27.7000 -87.8000 HU 70 11 50
1861266N20269 1861 25 NA GM NOT_NAMED 1861-09-26 21:00:00 TS 28.0424 -87.3496 main 206 199 _____________P -1 28.0424 -87.3496 HU 70 11 49
1861266N20269 1861 25 NA GM NOT_NAMED 1861-09-27 00:00:00 TS 28.4000 -86.9000 main 205 175 _____________O -1 28.4000 -86.9000 HU 70 8 45
1861266N20269 1861 25 NA GM NOT_NAMED 1861-09-27 03:00:00 TS 28.6295 -86.6861 main 175 95 _____________P -1 28.6295 -86.6861 HU 70 11 45
1861266N20269 1861 25 NA GM NOT_NAMED 1861-09-27 06:00:00 TS 29.2000 -86.0000 main 80 0 _____________O -1 29.2000 -86.0000 HU 70 989 29 51
1861266N20269 1861 25 NA NA NOT_NAMED 1861-09-27 09:00:00 TS 30.4868 -84.0830 main 0 0 _____________P -1 30.4868 -84.0830 HU 65 46 51
1861266N20269 1861 25 NA NA NOT_NAMED 1861-09-27 12:00:00 TS 32.1000 -81.8000 main 0 0 _____________O -1 32.1000 -81.8000 TS 60 47 48
1861266N20269 1861 25 NA NA NOT_NAMED 1861-09-27 15:00:00 TS 33.5891 -79.9672 main 0 0 _____________P -1 33.5891 -79.9672 TS 60 41 41
1861266N20269 1861 25 NA NA NOT_NAMED 1861-09-27 18:00:00 TS 35.2000 -78.6000 main 0 0 _____________O -1 35.2000 -78.6000 TS 60 38 26
1861266N20269 1861 25 NA NA NOT_NAMED 1861-09-27 21:00:00 TS 37.0234 -77.8888 main 0 0 _____________P -1 37.0234 -77.8888 TS 60 38 13
1861266N20269 1861 25 NA NA NOT_NAMED 1861-09-28 00:00:00 TS 38.9000 -77.5000 main 0 0 _____________O -1 38.9000 -77.5000 TS 60 37 12
1861266N20269 1861 25 NA NA NOT_NAMED 1861-09-28 03:00:00 TS 40.6744 -76.9131 main 0 0 _____________P -1 40.6744 -76.9131 TS 55 35 15
1861266N20269 1861 25 NA NA NOT_NAMED 1861-09-28 06:00:00 TS 42.3000 -76.3000 main 0 0 _____________O -1 42.3000 -76.3000 TS 50 32 16
1861266N20269 1861 25 NA NA NOT_NAMED 1861-09-28 09:00:00 TS 43.7310 -75.7039 main 0 0 _____________P -1 43.7310 -75.7039 TS 50 29 19
1861266N20269 1861 25 NA NA NOT_NAMED 1861-09-28 12:00:00 ET 45.0000 -75.0000 main 0 0 _____________O -1 45.0000 -75.0000 EX 50 25 24
1861266N20269 1861 25 NA NA NOT_NAMED 1861-09-28 15:00:00 ET 46.0302 -74.2430 main 0 0 _____________P -1 46.0302 -74.2430 EX 45 27 31
1861266N20269 1861 25 NA NA NOT_NAMED 1861-09-28 18:00:00 ET 47.3000 -73.0000 main 0 0 _____________O -1 47.3000 -73.0000 EX 40 39 36
1861266N20269 1861 25 NA NA NOT_NAMED 1861-09-28 21:00:00 ET 49.2200 -70.8625 main 0 0 _____________P -1 49.2200 -70.8625 EX 40 53 38
1861266N20269 1861 25 NA NA NOT_NAMED 1861-09-29 00:00:00 ET 51.5000 -68.0000 main 0 _____________O -1 51.5000 -68.0000 EX 40 58 38

IBTrACS Databaseについて

本データベースは、米国NOAAが公開する1842年以降の世界の熱帯低気圧のベストトラックデータアーカイブInternational Best Track Archive for Climate Stewardship (IBTrACS)を、ウェブで閲覧しやすい形式に変換したものです。

最終更新日:2021-12-01